Time;durP1;ratioP1;P1;durP2;ratioP2;P2;SDS_P1;SDS_P2;PMS_P1;PMS_P2;Temp;Humidity;BMP_temperature;BMP_pressure;BME280_temperature;BME280_humidity;BME280_pressure;Samples;Min_cycle;Max_cycle;Signal;HPM_P1;HPM_P2
2024/04/09 00:02:01;;;;;;;22.98;8.85;;;;;;;;;;5452949;26;19998;-68
2024/04/09 00:04:27;;;;;;;18.92;7.88;;;;;;;;;;5452221;26;20459;-68
2024/04/09 00:06:52;;;;;;;20.55;8.75;;;;;;;;;;5452383;26;20089;-68
2024/04/09 00:09:20;;;;;;;24.77;9.73;;;;;;;;;;5452319;26;20075;-68
2024/04/09 00:11:47;;;;;;;27.27;11.70;;;;;;;;;;5451581;26;19999;-68
2024/04/09 00:14:14;;;;;;;22.88;9.90;;;;;;;;;;5444818;26;20007;-68
2024/04/09 00:16:41;;;;;;;29.08;12.20;;;;;;;;;;5415719;26;20244;-68
2024/04/09 00:19:07;;;;;;;26.40;11.13;;;;;;;;;;5421448;26;20010;-68
2024/04/09 00:21:33;;;;;;;27.10;12.88;;;;;;;;;;5451914;26;19995;-68
2024/04/09 00:23:59;;;;;;;21.98;10.20;;;;;;;;;;5456351;26;20009;-68
2024/04/09 00:26:26;;;;;;;21.92;10.95;;;;;;;;;;5456208;26;20332;-68
2024/04/09 00:28:51;;;;;;;30.30;12.15;;;;;;;;;;5424203;26;19990;-69
2024/04/09 00:31:16;;;;;;;30.42;13.73;;;;;;;;;;5454889;26;19995;-68
2024/04/09 00:33:42;;;;;;;29.60;12.07;;;;;;;;;;5455863;26;19995;-69
2024/04/09 00:36:12;;;;;;;28.52;12.68;;;;;;;;;;5453307;26;20005;-68
2024/04/09 00:38:39;;;;;;;28.00;12.93;;;;;;;;;;5456161;26;20495;-68
2024/04/09 00:41:05;;;;;;;33.78;12.43;;;;;;;;;;5454551;26;19995;-68
2024/04/09 00:43:31;;;;;;;31.77;12.25;;;;;;;;;;5456183;26;20010;-68
2024/04/09 00:45:56;;;;;;;31.25;12.35;;;;;;;;;;5455714;26;19995;-68
2024/04/09 00:48:22;;;;;;;34.00;13.45;;;;;;;;;;5453432;26;20001;-69
2024/04/09 00:50:48;;;;;;;27.92;11.73;;;;;;;;;;5456263;26;20003;-68
2024/04/09 00:53:16;;;;;;;30.98;12.93;;;;;;;;;;5456402;26;20456;-68
2024/04/09 00:55:45;;;;;;;28.27;11.52;;;;;;;;;;5456797;26;20478;-68
2024/04/09 00:58:11;;;;;;;40.22;12.77;;;;;;;;;;5454741;26;20006;-68
2024/04/09 01:00:40;;;;;;;30.00;12.90;;;;;;;;;;5453763;26;20328;-68
2024/04/09 01:03:06;;;;;;;35.20;12.85;;;;;;;;;;5456004;26;20037;-68
2024/04/09 01:05:31;;;;;;;33.08;13.32;;;;;;;;;;5454681;26;20014;-69
2024/04/09 01:07:57;;;;;;;36.83;12.65;;;;;;;;;;5454795;26;19994;-68
2024/04/09 01:10:22;;;;;;;35.15;12.80;;;;;;;;;;5455274;26;20010;-68
2024/04/09 01:12:48;;;;;;;30.40;12.32;;;;;;;;;;5454307;26;19995;-68
2024/04/09 01:15:13;;;;;;;33.80;12.93;;;;;;;;;;5455068;26;20018;-68
2024/04/09 01:17:38;;;;;;;29.13;11.85;;;;;;;;;;5455122;26;20007;-68
2024/04/09 01:20:07;;;;;;;30.83;12.98;;;;;;;;;;5455446;26;19995;-68
2024/04/09 01:22:32;;;;;;;37.40;12.52;;;;;;;;;;5455353;26;19999;-69
2024/04/09 01:24:58;;;;;;;31.55;13.32;;;;;;;;;;5455341;26;19999;-68
2024/04/09 01:27:25;;;;;;;27.98;12.85;;;;;;;;;;5454824;26;19995;-69
2024/04/09 01:29:50;;;;;;;31.58;11.65;;;;;;;;;;5453636;26;20001;-69
2024/04/09 01:32:17;;;;;;;30.92;12.13;;;;;;;;;;5455258;26;19995;-68
2024/04/09 01:34:44;;;;;;;32.17;12.23;;;;;;;;;;5454793;26;20067;-69
2024/04/09 01:37:11;;;;;;;26.83;13.25;;;;;;;;;;5454399;26;19999;-68
2024/04/09 01:39:37;;;;;;;29.33;12.30;;;;;;;;;;5455173;26;19995;-69
2024/04/09 01:42:03;;;;;;;34.75;13.02;;;;;;;;;;5455101;26;20458;-69
2024/04/09 01:44:28;;;;;;;34.47;12.98;;;;;;;;;;5454898;26;20068;-68
2024/04/09 01:46:54;;;;;;;39.35;13.10;;;;;;;;;;5454929;26;20068;-68
2024/04/09 01:49:20;;;;;;;32.33;12.10;;;;;;;;;;5455051;26;20005;-68
2024/04/09 01:51:46;;;;;;;30.88;13.13;;;;;;;;;;5452698;26;19998;-69
2024/04/09 01:54:11;;;;;;;34.05;12.23;;;;;;;;;;5452959;26;20067;-69
2024/04/09 01:56:37;;;;;;;37.72;13.90;;;;;;;;;;5453308;26;20336;-69
2024/04/09 01:59:02;;;;;;;31.55;11.40;;;;;;;;;;5453214;26;19998;-69
2024/04/09 02:01:27;;;;;;;29.55;12.27;;;;;;;;;;5454980;26;20493;-69
2024/04/09 02:03:56;;;;;;;34.53;12.88;;;;;;;;;;5454282;26;20005;-69
2024/04/09 02:06:23;;;;;;;30.52;12.70;;;;;;;;;;5454889;26;20440;-69
2024/04/09 02:08:49;;;;;;;31.33;13.52;;;;;;;;;;5453060;26;19998;-69
2024/04/09 02:11:15;;;;;;;33.78;12.98;;;;;;;;;;5454723;26;20009;-69
2024/04/09 02:13:43;;;;;;;34.95;13.18;;;;;;;;;;5454639;26;20007;-69
2024/04/09 02:16:08;;;;;;;43.47;14.80;;;;;;;;;;5454019;26;20009;-68
2024/04/09 02:18:37;;;;;;;35.88;15.07;;;;;;;;;;5454732;26;20010;-68
2024/04/09 02:21:07;;;;;;;36.45;14.10;;;;;;;;;;5452957;26;20009;-69
2024/04/09 02:23:41;;;;;;;38.58;15.20;;;;;;;;;;5452870;26;20006;-69
2024/04/09 02:26:07;;;;;;;39.45;13.77;;;;;;;;;;5454552;26;20002;-69
2024/04/09 02:28:33;;;;;;;30.90;12.10;;;;;;;;;;5453654;26;20003;-69
2024/04/09 02:30:58;;;;;;;38.80;13.98;;;;;;;;;;5454307;26;20332;-69
2024/04/09 02:33:24;;;;;;;40.13;14.02;;;;;;;;;;5454827;26;20006;-69
2024/04/09 02:35:57;;;;;;;29.50;13.38;;;;;;;;;;5452883;26;19994;-69
2024/04/09 02:38:24;;;;;;;37.03;14.40;;;;;;;;;;5452847;26;19995;-69
2024/04/09 02:40:50;;;;;;;36.90;13.57;;;;;;;;;;5454028;26;20009;-69
2024/04/09 02:43:15;;;;;;;40.35;15.98;;;;;;;;;;5451480;26;20335;-68
2024/04/09 02:45:40;;;;;;;31.33;14.35;;;;;;;;;;5432508;26;20011;-69
2024/04/09 02:48:06;;;;;;;37.33;14.27;;;;;;;;;;5420558;26;20474;-69
2024/04/09 02:50:31;;;;;;;42.20;16.40;;;;;;;;;;5452239;26;20007;-69
2024/04/09 02:52:57;;;;;;;41.95;15.35;;;;;;;;;;5452701;26;20003;-68
2024/04/09 02:55:22;;;;;;;34.42;14.45;;;;;;;;;;5453982;26;20002;-68
2024/04/09 02:57:51;;;;;;;39.22;16.13;;;;;;;;;;5450030;26;19998;-69
2024/04/09 03:00:19;;;;;;;37.78;15.38;;;;;;;;;;5416557;26;20028;-69
2024/04/09 03:02:52;;;;;;;45.22;16.80;;;;;;;;;;5416620;26;20027;-69
2024/04/09 03:05:26;;;;;;;43.40;18.23;;;;;;;;;;5417999;26;20457;-69
2024/04/09 03:07:52;;;;;;;50.55;17.88;;;;;;;;;;5401549;26;20010;-69
2024/04/09 03:10:18;;;;;;;42.97;17.98;;;;;;;;;;5416129;26;20329;-69
2024/04/09 03:12:43;;;;;;;45.83;17.98;;;;;;;;;;5440739;26;20454;-69
2024/04/09 03:15:09;;;;;;;43.08;18.50;;;;;;;;;;5444935;26;20014;-69
2024/04/09 03:17:34;;;;;;;45.15;18.55;;;;;;;;;;5450983;26;19998;-69
2024/04/09 03:20:00;;;;;;;51.60;18.33;;;;;;;;;;5453665;26;20151;-68
2024/04/09 03:22:25;;;;;;;50.47;18.90;;;;;;;;;;5453466;26;20348;-68
2024/04/09 03:24:50;;;;;;;42.72;16.70;;;;;;;;;;5453234;26;20011;-68
2024/04/09 03:27:16;;;;;;;44.25;18.30;;;;;;;;;;5452458;26;20010;-68
2024/04/09 03:29:41;;;;;;;45.55;19.83;;;;;;;;;;5453143;26;20380;-68
2024/04/09 03:32:06;;;;;;;43.55;16.90;;;;;;;;;;5453476;26;20005;-68
2024/04/09 03:34:33;;;;;;;44.35;18.52;;;;;;;;;;5451592;26;20030;-69
2024/04/09 03:36:59;;;;;;;46.33;20.60;;;;;;;;;;5452787;26;20349;-68
2024/04/09 03:39:25;;;;;;;43.55;18.33;;;;;;;;;;5451700;26;19994;-69
2024/04/09 03:41:50;;;;;;;47.25;20.10;;;;;;;;;;5453059;26;20454;-69
2024/04/09 03:44:15;;;;;;;48.40;18.67;;;;;;;;;;5453195;26;20043;-69
2024/04/09 03:46:41;;;;;;;43.35;18.17;;;;;;;;;;5453027;26;20031;-68
2024/04/09 03:49:07;;;;;;;48.83;17.75;;;;;;;;;;5452600;26;19995;-69
2024/04/09 03:51:32;;;;;;;50.05;20.38;;;;;;;;;;5453037;26;20017;-69
2024/04/09 03:53:57;;;;;;;49.92;19.48;;;;;;;;;;5451486;26;20581;-69
2024/04/09 03:56:23;;;;;;;48.03;19.95;;;;;;;;;;5453865;26;20003;-69
2024/04/09 03:58:49;;;;;;;52.10;20.58;;;;;;;;;;5456403;26;20068;-69
2024/04/09 04:01:16;;;;;;;52.05;23.92;;;;;;;;;;5456350;26;20347;-69
2024/04/09 04:03:43;;;;;;;48.55;18.25;;;;;;;;;;5456759;26;20035;-68
2024/04/09 04:06:09;;;;;;;50.15;19.95;;;;;;;;;;5454705;26;19999;-69
2024/04/09 04:08:36;;;;;;;55.95;20.90;;;;;;;;;;5454145;26;20010;-68
2024/04/09 04:11:06;;;;;;;63.40;20.92;;;;;;;;;;5454756;26;20003;-69
2024/04/09 04:13:33;;;;;;;53.97;23.40;;;;;;;;;;5456596;26;20496;-69
2024/04/09 04:16:09;;;;;;;60.13;22.30;;;;;;;;;;5456317;26;20044;-69
2024/04/09 04:18:37;;;;;;;57.55;20.85;;;;;;;;;;5454228;26;19995;-69
2024/04/09 04:21:04;;;;;;;56.33;22.00;;;;;;;;;;5456306;26;20006;-69
2024/04/09 04:23:29;;;;;;;58.55;21.48;;;;;;;;;;5456419;26;20022;-69
2024/04/09 04:26:03;;;;;;;48.03;19.52;;;;;;;;;;5456619;26;20460;-69
2024/04/09 04:28:29;;;;;;;55.80;21.73;;;;;;;;;;5453996;26;20515;-69
2024/04/09 04:30:55;;;;;;;54.83;24.00;;;;;;;;;;5454604;26;20343;-69
2024/04/09 04:33:20;;;;;;;56.42;22.75;;;;;;;;;;5454954;26;19994;-69
2024/04/09 04:35:45;;;;;;;50.70;19.95;;;;;;;;;;5456670;26;19994;-69
2024/04/09 04:38:11;;;;;;;58.75;22.08;;;;;;;;;;5455985;26;19995;-69
2024/04/09 04:40:36;;;;;;;53.30;20.73;;;;;;;;;;5456931;26;20037;-69
2024/04/09 04:43:02;;;;;;;54.70;20.95;;;;;;;;;;5457340;26;20472;-68
2024/04/09 04:45:28;;;;;;;48.17;18.67;;;;;;;;;;5456429;26;20017;-69
2024/04/09 04:47:53;;;;;;;57.60;22.20;;;;;;;;;;5453830;26;20071;-69
2024/04/09 04:50:19;;;;;;;46.90;19.55;;;;;;;;;;5456186;26;19999;-68
2024/04/09 04:52:44;;;;;;;57.85;22.92;;;;;;;;;;5455835;26;20348;-68
2024/04/09 04:55:09;;;;;;;56.88;20.80;;;;;;;;;;5439955;26;20010;-69
2024/04/09 04:57:34;;;;;;;45.85;19.85;;;;;;;;;;5424709;26;20068;-68
2024/04/09 05:00:00;;;;;;;45.17;18.73;;;;;;;;;;5424388;26;20014;-68
2024/04/09 05:02:27;;;;;;;47.70;18.17;;;;;;;;;;5441059;26;20003;-68
2024/04/09 05:04:53;;;;;;;48.00;18.42;;;;;;;;;;5455568;26;19995;-69
2024/04/09 05:07:19;;;;;;;42.97;18.73;;;;;;;;;;5454145;26;20045;-69
2024/04/09 05:09:44;;;;;;;48.97;17.80;;;;;;;;;;5454244;26;19994;-69
2024/04/09 05:12:10;;;;;;;45.08;18.33;;;;;;;;;;5445111;26;20006;-69
2024/04/09 05:14:35;;;;;;;44.65;17.45;;;;;;;;;;5455320;26;20529;-69
2024/04/09 05:17:01;;;;;;;40.85;18.67;;;;;;;;;;5454442;26;19991;-69
2024/04/09 05:19:26;;;;;;;45.75;15.52;;;;;;;;;;5455615;26;20059;-68
2024/04/09 05:21:51;;;;;;;46.30;17.33;;;;;;;;;;5455266;26;19991;-68
2024/04/09 05:24:17;;;;;;;41.83;16.50;;;;;;;;;;5455601;26;20373;-68
2024/04/09 05:26:42;;;;;;;43.38;17.27;;;;;;;;;;5440657;26;20097;-68
2024/04/09 05:29:07;;;;;;;44.90;16.85;;;;;;;;;;5418385;26;20032;-68
2024/04/09 05:31:32;;;;;;;39.50;15.02;;;;;;;;;;5418704;26;20023;-68
2024/04/09 05:33:58;;;;;;;39.38;15.98;;;;;;;;;;5419353;26;19996;-68
2024/04/09 05:36:23;;;;;;;39.22;14.77;;;;;;;;;;5418703;26;20007;-69
2024/04/09 05:38:48;;;;;;;39.53;16.52;;;;;;;;;;5419283;26;20492;-69
2024/04/09 05:41:14;;;;;;;35.85;15.43;;;;;;;;;;5419706;26;20036;-68
2024/04/09 05:43:39;;;;;;;39.05;16.63;;;;;;;;;;5443825;26;20430;-69
2024/04/09 05:46:04;;;;;;;34.90;14.52;;;;;;;;;;5455010;26;19991;-68
2024/04/09 05:48:29;;;;;;;36.58;15.88;;;;;;;;;;5454259;26;20072;-68
2024/04/09 05:50:55;;;;;;;30.80;13.20;;;;;;;;;;5455001;26;20035;-68
2024/04/09 05:53:20;;;;;;;35.10;14.73;;;;;;;;;;5455004;26;19987;-69
2024/04/09 05:55:55;;;;;;;34.70;14.27;;;;;;;;;;5453832;26;19995;-68
2024/04/09 05:58:21;;;;;;;40.15;16.05;;;;;;;;;;5443133;26;20336;-68
2024/04/09 06:00:46;;;;;;;32.70;14.40;;;;;;;;;;5453549;26;19995;-68
2024/04/09 06:03:12;;;;;;;35.53;13.70;;;;;;;;;;5454413;26;20006;-68
2024/04/09 06:05:38;;;;;;;38.90;15.63;;;;;;;;;;5454680;26;20018;-68
2024/04/09 06:08:04;;;;;;;30.98;14.63;;;;;;;;;;5453088;26;19999;-68
2024/04/09 06:10:29;;;;;;;29.98;13.77;;;;;;;;;;5453234;26;20010;-69
2024/04/09 06:12:55;;;;;;;32.55;14.25;;;;;;;;;;5453432;26;20002;-68
2024/04/09 06:15:22;;;;;;;26.33;13.77;;;;;;;;;;5454302;26;20378;-68
2024/04/09 06:17:47;;;;;;;30.90;13.15;;;;;;;;;;5474520;21;19999;-66
2024/04/09 06:20:12;;;;;;;36.60;15.77;;;;;;;;;;5416663;26;19992;-67
2024/04/09 06:22:38;;;;;;;34.95;14.50;;;;;;;;;;5406050;26;20076;-67
2024/04/09 06:25:03;;;;;;;33.00;14.70;;;;;;;;;;5424167;26;20009;-67
2024/04/09 06:27:29;;;;;;;29.92;13.18;;;;;;;;;;5417504;26;20004;-67
2024/04/09 06:29:54;;;;;;;28.27;13.60;;;;;;;;;;5417804;26;20007;-67
2024/04/09 06:32:20;;;;;;;25.48;12.75;;;;;;;;;;5417681;26;20064;-67
2024/04/09 06:34:45;;;;;;;31.25;13.40;;;;;;;;;;5417669;26;20003;-67
2024/04/09 06:37:11;;;;;;;28.73;13.82;;;;;;;;;;5417572;26;20012;-67
2024/04/09 06:39:37;;;;;;;27.45;13.05;;;;;;;;;;5416481;26;20003;-67
2024/04/09 06:42:03;;;;;;;27.52;11.88;;;;;;;;;;5412472;26;20000;-67
2024/04/09 06:44:29;;;;;;;26.63;11.50;;;;;;;;;;5418674;26;19988;-71
2024/04/09 06:46:54;;;;;;;25.60;12.13;;;;;;;;;;5418092;26;20003;-67
2024/04/09 06:49:20;;;;;;;25.58;12.15;;;;;;;;;;5417718;26;19991;-67
2024/04/09 06:51:45;;;;;;;30.40;11.75;;;;;;;;;;5417283;26;20441;-67
2024/04/09 06:54:10;;;;;;;35.65;15.00;;;;;;;;;;5417983;26;19999;-67
2024/04/09 06:56:35;;;;;;;28.65;12.23;;;;;;;;;;5406269;26;20019;-67
2024/04/09 06:59:01;;;;;;;28.55;11.38;;;;;;;;;;5417411;26;20005;-67
2024/04/09 07:01:26;;;;;;;25.73;12.02;;;;;;;;;;5417386;26;20017;-68
2024/04/09 07:03:51;;;;;;;25.02;11.48;;;;;;;;;;5417307;26;20006;-67
2024/04/09 07:06:17;;;;;;;34.67;12.60;;;;;;;;;;5416651;26;20104;-67
2024/04/09 07:08:42;;;;;;;24.65;10.95;;;;;;;;;;5417482;26;19991;-67
2024/04/09 07:11:07;;;;;;;24.65;12.00;;;;;;;;;;5417591;26;20068;-67
2024/04/09 07:13:32;;;;;;;22.15;11.10;;;;;;;;;;5417042;26;20027;-67
2024/04/09 07:15:58;;;;;;;24.17;11.35;;;;;;;;;;5417627;26;20027;-67
2024/04/09 07:18:24;;;;;;;23.13;10.65;;;;;;;;;;5416460;26;20035;-67
2024/04/09 07:20:50;;;;;;;19.25;9.57;;;;;;;;;;5417601;26;20007;-67
2024/04/09 07:23:15;;;;;;;19.88;9.98;;;;;;;;;;5394168;26;20003;-67
2024/04/09 07:25:41;;;;;;;22.70;11.00;;;;;;;;;;5395925;26;20441;-67
2024/04/09 07:28:06;;;;;;;22.75;10.27;;;;;;;;;;5380813;26;19996;-67
2024/04/09 07:30:31;;;;;;;19.80;9.80;;;;;;;;;;5380971;26;20036;-67
2024/04/09 07:32:57;;;;;;;25.30;10.32;;;;;;;;;;5384944;26;20483;-67
2024/04/09 07:35:23;;;;;;;20.02;9.30;;;;;;;;;;5384984;26;20004;-67
2024/04/09 07:37:48;;;;;;;25.70;10.77;;;;;;;;;;5383349;26;19996;-67
2024/04/09 07:40:14;;;;;;;25.63;9.30;;;;;;;;;;5384343;26;20000;-67
2024/04/09 07:42:39;;;;;;;21.88;10.02;;;;;;;;;;5397456;26;19996;-67
2024/04/09 07:45:04;;;;;;;17.70;8.73;;;;;;;;;;5384876;26;20452;-67
2024/04/09 07:47:30;;;;;;;19.65;7.88;;;;;;;;;;5383878;26;20469;-67
2024/04/09 07:49:55;;;;;;;17.77;8.82;;;;;;;;;;5384693;26;19996;-68
2024/04/09 07:52:21;;;;;;;17.92;9.07;;;;;;;;;;5383228;26;20004;-68
2024/04/09 07:54:46;;;;;;;23.70;7.57;;;;;;;;;;5387182;26;20000;-67
2024/04/09 07:57:14;;;;;;;22.70;8.75;;;;;;;;;;5414919;26;20007;-67
2024/04/09 07:59:40;;;;;;;16.40;8.30;;;;;;;;;;5418991;26;19995;-67
2024/04/09 08:02:05;;;;;;;19.17;9.07;;;;;;;;;;5420365;26;20043;-67
2024/04/09 08:04:32;;;;;;;15.90;8.82;;;;;;;;;;5419955;26;20472;-67
2024/04/09 08:06:57;;;;;;;22.08;9.13;;;;;;;;;;5420070;26;20457;-67
2024/04/09 08:09:22;;;;;;;19.48;10.18;;;;;;;;;;5420037;26;20007;-67
2024/04/09 08:11:49;;;;;;;23.65;9.90;;;;;;;;;;5417419;26;20035;-67
2024/04/09 08:14:15;;;;;;;20.40;11.23;;;;;;;;;;5409416;26;19999;-67
2024/04/09 08:16:41;;;;;;;22.23;11.30;;;;;;;;;;5411607;26;20011;-67
2024/04/09 08:19:06;;;;;;;26.33;11.77;;;;;;;;;;5382626;26;20006;-67
2024/04/09 08:21:31;;;;;;;28.67;12.25;;;;;;;;;;5384097;26;20070;-67
2024/04/09 08:23:57;;;;;;;32.78;14.10;;;;;;;;;;5382998;26;20007;-67
2024/04/09 08:26:23;;;;;;;26.40;13.82;;;;;;;;;;5411590;26;20449;-66
2024/04/09 08:28:49;;;;;;;26.05;13.35;;;;;;;;;;5419279;26;20039;-68
2024/04/09 08:31:17;;;;;;;33.00;15.25;;;;;;;;;;5420083;26;20000;-67
2024/04/09 08:33:42;;;;;;;35.70;16.55;;;;;;;;;;5419341;26;20010;-67
2024/04/09 08:36:07;;;;;;;33.05;15.88;;;;;;;;;;5419656;26;20000;-68
2024/04/09 08:38:33;;;;;;;33.33;16.00;;;;;;;;;;5419161;26;20003;-68
2024/04/09 08:40:59;;;;;;;28.08;15.43;;;;;;;;;;5417984;26;19996;-68
2024/04/09 08:43:26;;;;;;;36.00;14.95;;;;;;;;;;5407342;26;19995;-67
2024/04/09 08:45:52;;;;;;;35.15;15.55;;;;;;;;;;5417823;26;20463;-68
2024/04/09 08:48:17;;;;;;;40.85;17.17;;;;;;;;;;5419284;26;19992;-68
2024/04/09 08:50:52;;;;;;;32.15;15.07;;;;;;;;;;5419348;26;19988;-67
2024/04/09 08:53:18;;;;;;;31.52;16.05;;;;;;;;;;5417803;26;20101;-68
2024/04/09 08:55:44;;;;;;;31.17;15.13;;;;;;;;;;5416333;26;19995;-67
2024/04/09 08:58:12;;;;;;;28.75;15.55;;;;;;;;;;5399836;26;20106;-67
2024/04/09 09:00:37;;;;;;;29.17;13.95;;;;;;;;;;5394735;26;20024;-67
2024/04/09 09:03:03;;;;;;;36.90;17.98;;;;;;;;;;5409130;26;20345;-67
2024/04/09 09:05:29;;;;;;;29.27;14.50;;;;;;;;;;5418972;26;20345;-68
2024/04/09 09:08:01;;;;;;;31.48;13.52;;;;;;;;;;5419195;26;20006;-68
2024/04/09 09:10:26;;;;;;;25.85;13.45;;;;;;;;;;5419109;26;20456;-68
2024/04/09 09:12:58;;;;;;;33.88;14.35;;;;;;;;;;5413209;26;20002;-67
2024/04/09 09:15:24;;;;;;;29.00;13.38;;;;;;;;;;5415203;26;20007;-67
2024/04/09 09:17:50;;;;;;;30.25;13.88;;;;;;;;;;5416436;26;20472;-68
2024/04/09 09:20:16;;;;;;;35.85;14.45;;;;;;;;;;5419142;26;20007;-68
2024/04/09 09:22:46;;;;;;;25.83;14.07;;;;;;;;;;5419195;26;19999;-68
2024/04/09 09:25:20;;;;;;;28.33;14.02;;;;;;;;;;5417619;26;20000;-68
2024/04/09 09:27:46;;;;;;;28.77;12.63;;;;;;;;;;5388057;26;20008;-68
2024/04/09 09:30:12;;;;;;;31.25;14.07;;;;;;;;;;5418904;26;20003;-67
2024/04/09 09:32:40;;;;;;;27.00;12.88;;;;;;;;;;5418745;26;20356;-67
2024/04/09 09:35:11;;;;;;;22.65;10.82;;;;;;;;;;5417175;26;20006;-67
2024/04/09 09:37:36;;;;;;;30.35;11.75;;;;;;;;;;5416613;26;19999;-67
2024/04/09 09:40:02;;;;;;;34.20;12.90;;;;;;;;;;5416841;26;19999;-67
2024/04/09 09:42:28;;;;;;;29.50;12.55;;;;;;;;;;5387624;26;20402;-67
2024/04/09 09:44:54;;;;;;;24.77;12.18;;;;;;;;;;5417288;26;19999;-67
2024/04/09 09:47:19;;;;;;;21.83;11.20;;;;;;;;;;5417714;26;20007;-67
2024/04/09 09:49:45;;;;;;;26.85;11.60;;;;;;;;;;5416510;26;20007;-68
2024/04/09 09:52:10;;;;;;;28.88;10.52;;;;;;;;;;5418816;26;20008;-68
2024/04/09 09:54:35;;;;;;;28.80;11.80;;;;;;;;;;5418390;26;20006;-67
2024/04/09 09:57:00;;;;;;;22.55;9.80;;;;;;;;;;5418669;26;20380;-67
2024/04/09 09:59:30;;;;;;;12.80;7.53;;;;;;;;;;5416790;26;20002;-67
2024/04/09 10:01:56;;;;;;;13.25;6.20;;;;;;;;;;5416320;26;20585;-67
2024/04/09 10:04:25;;;;;;;14.30;5.32;;;;;;;;;;5416843;26;20076;-67
2024/04/09 10:07:02;;;;;;;12.25;5.05;;;;;;;;;;5416939;26;20428;-67
2024/04/09 10:09:56;;;;;;;19.80;4.50;;;;;;;;;;5416792;26;20449;-67
2024/04/09 10:12:23;;;;;;;19.63;6.53;;;;;;;;;;5403038;26;20068;-67
2024/04/09 10:14:55;;;;;;;14.15;4.93;;;;;;;;;;5417895;26;19996;-67
2024/04/09 10:17:20;;;;;;;13.70;4.95;;;;;;;;;;5418484;26;20002;-68
2024/04/09 10:19:49;;;;;;;12.65;4.22;;;;;;;;;;5418571;26;19999;-67
2024/04/09 10:22:15;;;;;;;13.68;4.40;;;;;;;;;;5416667;26;20477;-67
2024/04/09 10:24:42;;;;;;;9.57;4.03;;;;;;;;;;5418337;26;19999;-67
2024/04/09 10:27:11;;;;;;;13.20;3.72;;;;;;;;;;5417886;26;19996;-67
2024/04/09 10:29:36;;;;;;;14.85;4.95;;;;;;;;;;5418119;26;20011;-67
2024/04/09 10:32:12;;;;;;;11.90;4.93;;;;;;;;;;5418204;26;19996;-67
2024/04/09 10:34:37;;;;;;;17.85;4.60;;;;;;;;;;5418036;26;20011;-68
2024/04/09 10:37:02;;;;;;;6.30;3.67;;;;;;;;;;5418199;26;19996;-67
2024/04/09 10:39:28;;;;;;;18.20;4.53;;;;;;;;;;5417453;26;20004;-67
2024/04/09 10:41:57;;;;;;;13.60;4.55;;;;;;;;;;5416481;26;20419;-67
2024/04/09 10:44:23;;;;;;;11.30;4.15;;;;;;;;;;5416389;26;20005;-68
2024/04/09 10:46:48;;;;;;;9.38;3.95;;;;;;;;;;5417246;26;19999;-68
2024/04/09 10:49:14;;;;;;;11.70;3.50;;;;;;;;;;5418032;26;20010;-67
2024/04/09 10:51:39;;;;;;;7.88;3.22;;;;;;;;;;5416192;26;19996;-68
2024/04/09 10:54:05;;;;;;;16.15;4.05;;;;;;;;;;5417832;26;20069;-67
2024/04/09 10:56:32;;;;;;;16.80;3.58;;;;;;;;;;5417604;26;20004;-68
2024/04/09 10:58:57;;;;;;;9.10;3.17;;;;;;;;;;5416913;26;20069;-67
2024/04/09 11:01:23;;;;;;;14.43;4.47;;;;;;;;;;5417767;26;20473;-67
2024/04/09 11:03:48;;;;;;;16.25;3.03;;;;;;;;;;5417620;26;19992;-68
2024/04/09 11:06:14;;;;;;;20.40;4.63;;;;;;;;;;5415200;26;19995;-67
2024/04/09 11:08:39;;;;;;;9.57;3.63;;;;;;;;;;5416890;26;20349;-67
2024/04/09 11:11:05;;;;;;;15.10;4.15;;;;;;;;;;5417646;26;19999;-67
2024/04/09 11:13:31;;;;;;;10.60;3.13;;;;;;;;;;5415815;26;20000;-67
2024/04/09 11:15:57;;;;;;;11.27;4.13;;;;;;;;;;5415672;26;20002;-67
2024/04/09 11:18:25;;;;;;;15.70;5.50;;;;;;;;;;5415126;26;20004;-67
2024/04/09 11:20:52;;;;;;;10.00;3.13;;;;;;;;;;5417365;26;20010;-67
2024/04/09 11:23:19;;;;;;;10.50;3.08;;;;;;;;;;5417328;26;20076;-67
2024/04/09 11:25:45;;;;;;;6.85;3.28;;;;;;;;;;5417364;26;20000;-67
2024/04/09 11:28:13;;;;;;;15.43;3.08;;;;;;;;;;5417300;26;19996;-67
2024/04/09 11:30:42;;;;;;;8.80;2.70;;;;;;;;;;5416716;26;19999;-68
2024/04/09 11:33:09;;;;;;;12.82;3.17;;;;;;;;;;5417175;26;20039;-68
2024/04/09 11:35:34;;;;;;;13.68;3.30;;;;;;;;;;5417057;26;20010;-68
2024/04/09 11:37:59;;;;;;;9.43;3.00;;;;;;;;;;5385791;26;20328;-67
2024/04/09 11:40:29;;;;;;;14.23;3.17;;;;;;;;;;5416466;26;20000;-67
2024/04/09 11:42:56;;;;;;;11.65;2.97;;;;;;;;;;5416889;26;20450;-67
2024/04/09 11:45:23;;;;;;;10.55;2.58;;;;;;;;;;5415206;26;19999;-68
2024/04/09 11:47:49;;;;;;;9.02;3.13;;;;;;;;;;5416887;26;20318;-67
2024/04/09 11:50:14;;;;;;;14.32;3.17;;;;;;;;;;5416923;26;20011;-67
2024/04/09 11:52:41;;;;;;;12.63;3.95;;;;;;;;;;5414656;26;20003;-67
2024/04/09 11:55:07;;;;;;;14.88;3.00;;;;;;;;;;5416751;26;20403;-68
2024/04/09 11:57:32;;;;;;;12.18;3.45;;;;;;;;;;5414986;26;20337;-67
2024/04/09 11:59:58;;;;;;;15.23;3.10;;;;;;;;;;5416569;26;19999;-67
2024/04/09 12:02:23;;;;;;;6.15;2.60;;;;;;;;;;5416201;26;19996;-68
2024/04/09 12:04:48;;;;;;;26.17;4.03;;;;;;;;;;5416665;26;20336;-68
2024/04/09 12:07:13;;;;;;;17.83;3.53;;;;;;;;;;5414804;26;20006;-68
2024/04/09 12:09:39;;;;;;;12.75;3.92;;;;;;;;;;5416584;26;20011;-67
2024/04/09 12:12:08;;;;;;;14.65;3.75;;;;;;;;;;5415892;26;20073;-67
2024/04/09 12:14:34;;;;;;;7.55;3.97;;;;;;;;;;5416337;26;19999;-68
2024/04/09 12:16:59;;;;;;;6.38;2.72;;;;;;;;;;5416365;26;20076;-67
2024/04/09 12:19:25;;;;;;;13.45;4.13;;;;;;;;;;5500598;21;20391;-69
2024/04/09 12:21:50;;;;;;;17.15;3.78;;;;;;;;;;5456380;26;19994;-69
2024/04/09 12:24:15;;;;;;;11.88;3.13;;;;;;;;;;5453876;26;20026;-69
2024/04/09 12:26:41;;;;;;;16.30;3.25;;;;;;;;;;5456224;26;20513;-69
2024/04/09 12:29:07;;;;;;;17.60;3.50;;;;;;;;;;5448162;26;20009;-69
2024/04/09 12:31:32;;;;;;;10.65;3.25;;;;;;;;;;5451037;26;19991;-69
2024/04/09 12:33:58;;;;;;;16.38;2.85;;;;;;;;;;5452467;26;19995;-69
2024/04/09 12:36:23;;;;;;;10.32;2.88;;;;;;;;;;5455675;26;20067;-69
2024/04/09 12:38:48;;;;;;;19.83;3.40;;;;;;;;;;5454967;26;19995;-69
2024/04/09 12:41:14;;;;;;;12.73;3.05;;;;;;;;;;5455804;26;20064;-69
2024/04/09 12:43:39;;;;;;;15.20;3.25;;;;;;;;;;5423499;26;20005;-69
2024/04/09 12:46:04;;;;;;;9.70;2.60;;;;;;;;;;5455822;26;19998;-69
2024/04/09 12:48:30;;;;;;;8.63;2.92;;;;;;;;;;5455651;26;20044;-69
2024/04/09 12:50:56;;;;;;;6.78;3.25;;;;;;;;;;5453559;26;19995;-69
2024/04/09 12:53:21;;;;;;;16.30;3.60;;;;;;;;;;5453693;26;19999;-69
2024/04/09 12:55:47;;;;;;;17.17;3.45;;;;;;;;;;5455438;26;20007;-69
2024/04/09 12:58:13;;;;;;;14.80;3.63;;;;;;;;;;5424009;26;19998;-69
2024/04/09 13:00:39;;;;;;;14.57;2.88;;;;;;;;;;5484222;26;20007;-69
2024/04/09 13:03:04;;;;;;;12.55;2.70;;;;;;;;;;5454738;26;19995;-69
2024/04/09 13:05:30;;;;;;;13.55;3.60;;;;;;;;;;5455335;26;19991;-69
2024/04/09 13:07:55;;;;;;;13.65;2.78;;;;;;;;;;5455697;26;20017;-69
2024/04/09 13:10:21;;;;;;;15.82;3.38;;;;;;;;;;5453073;26;20130;-69
2024/04/09 13:12:46;;;;;;;14.60;2.72;;;;;;;;;;5455319;26;19999;-69
2024/04/09 13:15:12;;;;;;;12.88;2.97;;;;;;;;;;5455502;26;19994;-69
2024/04/09 13:17:37;;;;;;;14.13;2.88;;;;;;;;;;5455276;26;20071;-69
2024/04/09 13:20:03;;;;;;;16.83;3.35;;;;;;;;;;5453466;26;19990;-69
2024/04/09 13:22:30;;;;;;;18.48;3.30;;;;;;;;;;5483738;26;20008;-69
2024/04/09 13:24:56;;;;;;;13.45;3.08;;;;;;;;;;5454401;26;20027;-69
2024/04/09 13:27:21;;;;;;;9.20;2.80;;;;;;;;;;5455199;26;19998;-69
2024/04/09 13:29:46;;;;;;;10.10;3.70;;;;;;;;;;5454372;26;20039;-69
2024/04/09 13:32:11;;;;;;;14.20;3.42;;;;;;;;;;5453224;26;20035;-69
2024/04/09 13:34:37;;;;;;;11.38;2.67;;;;;;;;;;5453064;26;20006;-69
2024/04/09 13:37:02;;;;;;;13.20;4.03;;;;;;;;;;5455001;26;19999;-69
2024/04/09 13:39:28;;;;;;;9.30;2.65;;;;;;;;;;5454520;26;19999;-69
2024/04/09 13:41:53;;;;;;;21.77;4.05;;;;;;;;;;5454866;26;20010;-69
2024/04/09 13:44:18;;;;;;;13.20;2.80;;;;;;;;;;5453237;26;20006;-69
2024/04/09 13:46:44;;;;;;;10.48;2.97;;;;;;;;;;5454292;26;19995;-69
2024/04/09 13:49:09;;;;;;;15.43;3.67;;;;;;;;;;5483500;26;20347;-69
2024/04/09 13:51:34;;;;;;;9.85;3.10;;;;;;;;;;5454784;26;20002;-69
2024/04/09 13:53:59;;;;;;;14.32;3.25;;;;;;;;;;5454716;26;20010;-69
2024/04/09 13:56:25;;;;;;;10.88;2.50;;;;;;;;;;5452369;26;20020;-69
2024/04/09 13:58:50;;;;;;;14.15;2.85;;;;;;;;;;5454653;26;20002;-69
2024/04/09 14:01:15;;;;;;;11.02;3.05;;;;;;;;;;5454626;26;20019;-69
2024/04/09 14:03:41;;;;;;;15.32;3.30;;;;;;;;;;5452401;26;20002;-69
2024/04/09 14:06:06;;;;;;;10.23;3.15;;;;;;;;;;5454668;26;20064;-69
2024/04/09 14:08:31;;;;;;;12.40;3.08;;;;;;;;;;5454510;26;20006;-69
2024/04/09 14:10:57;;;;;;;11.82;4.78;;;;;;;;;;5454515;26;20437;-69
2024/04/09 14:13:23;;;;;;;17.92;3.20;;;;;;;;;;5452436;26;20006;-69
2024/04/09 14:15:49;;;;;;;12.85;3.13;;;;;;;;;;5452591;26;19995;-69
2024/04/09 14:18:16;;;;;;;14.00;3.33;;;;;;;;;;5452601;26;20010;-69